METAR Data
IDs: Format: Raw Decoded Include TAF

Data at: 2148 UTC 30 Jun 2022

KEMT 302145Z 20008KT 10SM CLR 32/12 A2995
No TAF found for KEMT

KPOC 302047Z 28008KT 10SM CLR 31/14 A3000
No TAF found for KPOC

KFUL 302053Z 20006KT 10SM CLR 28/14 A2997 RMK AO2 SLP146 T02830144 58013
No TAF found for KFUL

KBUR 302053Z 20007KT 10SM CLR 32/14 A2998 RMK AO2 SLP137 T03170144 58015

KBUR 301736Z 3018/0118 VRB03KT 6SM HZ SKC
  FM302000 17010KT P6SM SKC
  FM010400 13007KT P6SM SKC
  FM010900 VRB03KT 4SM BR OVC007
  FM011500 VRB03KT 5SM BR BKN010


KONT 302053Z 25010G18KT 10SM FEW110 FEW200 33/12 A2998 RMK AO2 SLP132 T03330122 58014

KONT 301723Z 3018/0124 24004KT P6SM FEW150
  FM302030 26011G18KT P6SM SKC
  FM010400 24005KT P6SM SKC
  FM012000 26011G18KT P6SM SKC


KCNO 302053Z 26010KT 10SM FEW100 FEW180 36/13 A2997 RMK AO2 SLP143 T03610128 58015
No TAF found for KCNO

KLGB 302053Z 19006KT 10SM CLR 26/16 A2998 RMK AO2 SLP152 T02610156 58014

KLGB 301736Z 3018/0118 VRB06KT P6SM SKC
  FM301900 19008KT P6SM SKC
  FM302300 30008KT P6SM SKC
  FM010400 VRB03KT P6SM SKC
  FM010600 VRB03KT P6SM OVC008
  FM011200 VRB03KT P6SM OVC012


KLAX 302053Z 26011KT 9SM FEW080 SCT100 BKN140 23/16 A3000 RMK AO2 SLP157 T02280161 58009

KLAX 302114Z 3021/0124 26011KT P6SM FEW080 SCT100 BKN140
  FM010300 VRB03KT P6SM SCT008
  FM010500 26006KT P6SM OVC008
  FM011200 VRB03KT P6SM OVC012
  FM011700 26006KT P6SM SCT015
  FM012000 26012KT P6SM SKC


KCMA 302055Z 26009KT 7SM CLR 24/14 A3000 RMK AO2 SLP166 T02440144 57009

KCMA 301736Z 3018/0118 22004KT 6SM HZ SCT011
  FM301900 24008KT P6SM SCT009
  FM302100 24012KT P6SM SKC
  FM010300 VRB03KT P6SM SKC
  FM010600 VRB03KT P6SM OVC008
  FM011200 VRB03KT P6SM OVC010


KOXR 302051Z 27009KT 9SM FEW011 21/16 A3001 RMK AO2 SLP161 T02060161 58006

KOXR 301932Z 3020/0118 25007KT P6SM SCT013
  FM302200 26012KT P6SM SCT010
  FM010400 26006KT P6SM OVC008
  FM011200 VRB03KT P6SM OVC010